createdAt,value
2018-06-27T00:00:07.738Z,6.60
2018-06-27T00:01:07.981Z,7.40
2018-06-27T00:02:08.219Z,8.00
2018-06-27T00:03:08.461Z,7.70
2018-06-27T00:04:08.702Z,7.90
2018-06-27T00:05:08.943Z,8.90
2018-06-27T00:06:09.184Z,8.30
2018-06-27T00:07:09.426Z,9.40
2018-06-27T00:08:09.666Z,9.50
2018-06-27T00:09:09.908Z,8.60
2018-06-27T00:10:10.149Z,9.10
2018-06-27T00:11:10.391Z,8.80
2018-06-27T00:12:10.632Z,9.70
2018-06-27T00:13:10.874Z,9.50
2018-06-27T00:14:11.112Z,8.50
2018-06-27T00:15:11.354Z,8.90
2018-06-27T00:16:11.593Z,9.40
2018-06-27T00:17:11.837Z,9.40
2018-06-27T00:18:12.076Z,8.60
2018-06-27T00:19:12.316Z,8.50
2018-06-27T00:20:12.557Z,8.00
2018-06-27T00:21:12.797Z,7.50
2018-06-27T00:22:13.037Z,7.50
2018-06-27T00:23:13.276Z,7.80
2018-06-27T00:24:13.521Z,7.30
2018-06-27T00:25:13.756Z,8.60
2018-06-27T00:26:13.996Z,8.60
2018-06-27T00:27:14.236Z,8.80
2018-06-27T00:28:14.477Z,8.90
2018-06-27T00:29:14.719Z,9.20
2018-06-27T00:30:14.959Z,8.10
2018-06-27T00:31:15.199Z,9.60
2018-06-27T00:32:15.440Z,9.40
2018-06-27T00:33:15.680Z,8.80
2018-06-27T00:34:15.920Z,9.50
2018-06-27T00:35:16.163Z,9.80
2018-06-27T00:36:16.402Z,9.60
2018-06-27T00:37:16.645Z,9.60
2018-06-27T00:38:16.891Z,10.60
2018-06-27T00:39:17.125Z,11.10
2018-06-27T00:40:17.366Z,11.00
2018-06-27T00:41:17.606Z,11.10
2018-06-27T00:42:17.853Z,10.60
2018-06-27T00:43:18.091Z,11.90
2018-06-27T00:44:18.328Z,10.70
2018-06-27T00:45:18.567Z,11.10
2018-06-27T00:46:18.809Z,11.90
2018-06-27T00:47:19.050Z,10.20
2018-06-27T00:48:19.293Z,12.00
2018-06-27T00:49:19.532Z,11.90
2018-06-27T00:50:19.772Z,10.00
2018-06-27T00:51:20.017Z,10.10
2018-06-27T00:52:20.254Z,10.30
2018-06-27T00:53:20.493Z,11.90
2018-06-27T00:54:20.736Z,13.30
2018-06-27T00:55:20.977Z,12.60
2018-06-27T00:56:21.216Z,13.50
2018-06-27T00:57:21.462Z,12.90
2018-06-27T00:58:21.700Z,13.30
2018-06-27T00:59:21.940Z,11.50
2018-06-27T01:00:22.180Z,12.10
2018-06-27T01:01:22.422Z,10.50
2018-06-27T01:02:22.662Z,12.70
2018-06-27T01:03:22.903Z,10.70
2018-06-27T01:04:23.139Z,11.10
2018-06-27T01:05:23.380Z,11.80
2018-06-27T01:06:23.620Z,11.30
2018-06-27T01:07:23.861Z,12.10
2018-06-27T01:08:24.101Z,12.50
2018-06-27T01:09:24.342Z,14.10
2018-06-27T01:10:24.582Z,14.20
2018-06-27T01:11:24.822Z,15.50
2018-06-27T01:12:25.061Z,15.10
2018-06-27T01:13:25.301Z,15.40
2018-06-27T01:14:25.542Z,15.90
2018-06-27T01:15:25.790Z,15.20
2018-06-27T01:16:26.024Z,15.70
2018-06-27T01:17:26.263Z,16.10
2018-06-27T01:18:26.502Z,16.70
2018-06-27T01:19:26.743Z,16.70
2018-06-27T01:20:26.985Z,16.30
2018-06-27T01:21:27.227Z,14.50
2018-06-27T01:22:27.468Z,14.60
2018-06-27T01:23:27.710Z,15.80
2018-06-27T01:24:27.947Z,16.20
2018-06-27T01:25:28.188Z,15.90
2018-06-27T01:26:28.428Z,14.10
2018-06-27T01:27:28.666Z,14.80
2018-06-27T01:28:28.905Z,14.30
2018-06-27T01:29:29.150Z,13.60
2018-06-27T01:30:29.387Z,13.70
2018-06-27T01:31:29.626Z,12.20
2018-06-27T01:32:29.870Z,12.90
2018-06-27T01:33:30.108Z,14.40
2018-06-27T01:34:30.349Z,16.00
2018-06-27T01:35:30.588Z,16.00
2018-06-27T01:36:30.829Z,15.90
2018-06-27T01:37:31.073Z,15.10
2018-06-27T01:38:31.310Z,14.90
2018-06-27T01:39:31.551Z,13.60
2018-06-27T01:40:31.791Z,14.60
2018-06-27T01:41:32.026Z,14.90
2018-06-27T01:42:32.266Z,13.60
2018-06-27T01:43:32.505Z,14.30
2018-06-27T01:44:32.746Z,14.80
2018-06-27T01:45:32.985Z,15.30
2018-06-27T01:46:33.227Z,14.70
2018-06-27T01:47:33.467Z,14.20
2018-06-27T01:48:33.708Z,14.80
2018-06-27T01:49:33.948Z,15.50
2018-06-27T01:50:34.191Z,14.60
2018-06-27T01:51:34.431Z,16.30
2018-06-27T01:52:34.671Z,14.40
2018-06-27T01:53:34.915Z,13.60
2018-06-27T01:54:35.153Z,13.70
2018-06-27T01:55:35.395Z,16.70
2018-06-27T01:56:35.637Z,18.10
2018-06-27T01:57:35.876Z,17.30
2018-06-27T01:58:36.119Z,18.00
2018-06-27T01:59:36.358Z,15.90
2018-06-27T02:00:36.600Z,14.90
2018-06-27T02:01:36.841Z,15.40
2018-06-27T02:02:37.081Z,15.60
2018-06-27T02:03:37.323Z,14.90
2018-06-27T02:04:37.563Z,15.20
2018-06-27T02:05:37.803Z,15.40
2018-06-27T02:06:38.044Z,14.80
2018-06-27T02:07:38.287Z,13.90
2018-06-27T02:08:38.527Z,14.70
2018-06-27T02:09:38.768Z,14.30
2018-06-27T02:10:39.009Z,13.40
2018-06-27T02:11:39.249Z,13.30
2018-06-27T02:12:39.492Z,13.10
2018-06-27T02:13:39.731Z,11.20
2018-06-27T02:14:39.977Z,10.50
2018-06-27T02:15:40.215Z,9.20
2018-06-27T02:16:40.456Z,9.90
2018-06-27T02:17:40.695Z,10.10
2018-06-27T02:18:40.940Z,9.80
2018-06-27T02:19:41.179Z,10.50
2018-06-27T02:20:41.419Z,11.60
2018-06-27T02:21:41.661Z,11.50
2018-06-27T02:22:41.901Z,12.10
2018-06-27T02:23:42.142Z,12.20
2018-06-27T02:24:42.382Z,12.50
2018-06-27T02:25:42.624Z,13.10
2018-06-27T02:26:42.865Z,13.30
2018-06-27T02:27:43.105Z,12.80
2018-06-27T02:28:43.347Z,11.30
2018-06-27T02:29:43.587Z,10.40
2018-06-27T02:30:43.829Z,10.40
2018-06-27T02:31:44.072Z,8.60
2018-06-27T02:32:44.310Z,8.90
2018-06-27T02:33:44.552Z,9.20
2018-06-27T02:34:44.798Z,9.90
2018-06-27T02:35:45.041Z,9.10
2018-06-27T02:36:45.282Z,9.40
2018-06-27T02:37:45.522Z,10.60
2018-06-27T02:38:45.763Z,12.00
2018-06-27T02:39:46.004Z,14.40
2018-06-27T02:40:46.248Z,13.90
2018-06-27T02:41:46.490Z,14.90
2018-06-27T02:42:46.731Z,14.70
2018-06-27T02:43:46.972Z,17.50
2018-06-27T02:44:47.214Z,16.70
2018-06-27T02:45:47.452Z,15.30
2018-06-27T02:46:47.692Z,11.10
2018-06-27T02:47:47.935Z,10.80
2018-06-27T02:48:48.184Z,12.90
2018-06-27T02:49:48.486Z,13.60
2018-06-27T02:50:48.658Z,12.80
2018-06-27T02:51:48.901Z,13.80
2018-06-27T02:52:49.143Z,16.00
2018-06-27T02:53:49.385Z,16.00
2018-06-27T02:54:49.625Z,14.80
2018-06-27T02:55:49.867Z,13.50
2018-06-27T02:56:50.109Z,13.80
2018-06-27T02:57:50.351Z,14.00
2018-06-27T02:58:50.594Z,12.70
2018-06-27T02:59:50.836Z,11.40
2018-06-27T03:00:51.078Z,11.70
2018-06-27T03:01:51.315Z,11.20
2018-06-27T03:02:51.557Z,11.20
2018-06-27T03:03:51.798Z,12.90
2018-06-27T03:04:52.047Z,13.10
2018-06-27T03:05:52.280Z,15.00
2018-06-27T03:06:52.522Z,12.50
2018-06-27T03:07:52.765Z,11.90
2018-06-27T03:08:53.005Z,13.70
2018-06-27T03:09:53.247Z,13.30
2018-06-27T03:10:53.488Z,15.10
2018-06-27T03:11:53.731Z,15.70
2018-06-27T03:12:53.973Z,16.40
2018-06-27T03:13:54.214Z,14.70
2018-06-27T03:14:54.457Z,13.90
2018-06-27T03:15:54.696Z,15.30
2018-06-27T03:16:54.937Z,14.20
2018-06-27T03:17:55.177Z,13.80
2018-06-27T03:18:55.423Z,13.00
2018-06-27T03:19:55.660Z,13.20
2018-06-27T03:20:55.900Z,13.40
2018-06-27T03:21:56.142Z,13.80
2018-06-27T03:22:56.382Z,13.80
2018-06-27T03:23:56.625Z,14.40
2018-06-27T03:24:56.864Z,14.30
2018-06-27T03:25:57.105Z,14.90
2018-06-27T03:26:57.347Z,13.60
2018-06-27T03:27:57.587Z,13.80
2018-06-27T03:28:57.829Z,15.10
2018-06-27T03:29:58.068Z,17.00
2018-06-27T03:30:58.310Z,19.40
2018-06-27T03:31:58.552Z,21.10
2018-06-27T03:32:58.792Z,21.60
2018-06-27T03:33:59.038Z,22.00
2018-06-27T03:34:59.273Z,21.70
2018-06-27T03:35:59.517Z,20.90
2018-06-27T03:36:59.758Z,21.60
2018-06-27T03:38:08.661Z,20.60
2018-06-27T03:39:00.408Z,21.40
2018-06-27T03:40:00.650Z,20.70
2018-06-27T03:41:00.890Z,15.30
2018-06-27T03:42:01.131Z,14.30
2018-06-27T03:43:01.374Z,17.90
2018-06-27T03:44:01.611Z,17.60
2018-06-27T03:45:01.855Z,21.00
2018-06-27T03:46:02.095Z,22.80
2018-06-27T03:47:02.338Z,22.40
2018-06-27T03:48:02.576Z,24.30
2018-06-27T03:49:02.819Z,23.30
2018-06-27T03:50:03.059Z,24.80
2018-06-27T03:51:03.299Z,23.30
2018-06-27T03:52:03.539Z,24.10
2018-06-27T03:53:03.781Z,23.60
2018-06-27T03:54:04.023Z,24.80
2018-06-27T03:55:04.267Z,25.00
2018-06-27T03:56:04.505Z,25.90
2018-06-27T03:57:04.746Z,27.40
2018-06-27T03:58:04.987Z,26.90
2018-06-27T03:59:05.304Z,28.80
2018-06-27T04:00:05.468Z,30.10
2018-06-27T04:01:05.707Z,30.10
2018-06-27T04:02:05.950Z,29.70
2018-06-27T04:03:06.191Z,27.90
2018-06-27T04:04:06.431Z,28.10
2018-06-27T04:05:06.672Z,27.30
2018-06-27T04:06:06.915Z,25.70
2018-06-27T04:07:07.154Z,24.60
2018-06-27T04:08:07.394Z,22.20
2018-06-27T04:09:07.635Z,20.70
2018-06-27T04:10:07.876Z,23.20
2018-06-27T04:11:08.116Z,21.40
2018-06-27T04:12:08.357Z,14.30
2018-06-27T04:13:08.719Z,12.90
2018-06-27T04:14:08.840Z,12.20
2018-06-27T04:15:09.080Z,13.50
2018-06-27T04:16:09.322Z,14.10
2018-06-27T04:17:09.565Z,14.70
2018-06-27T04:18:09.804Z,16.20
2018-06-27T04:19:10.046Z,16.40
2018-06-27T04:20:10.289Z,15.50
2018-06-27T04:21:10.530Z,14.90
2018-06-27T04:22:10.768Z,13.80
2018-06-27T04:23:11.009Z,14.50
2018-06-27T04:24:11.249Z,13.60
2018-06-27T04:25:11.491Z,14.90
2018-06-27T04:26:11.732Z,15.00
2018-06-27T04:27:11.973Z,13.20
2018-06-27T04:28:12.216Z,11.70
2018-06-27T04:29:12.458Z,12.90
2018-06-27T04:30:12.695Z,13.90
2018-06-27T04:31:12.938Z,15.50
2018-06-27T04:32:13.180Z,18.20
2018-06-27T04:33:13.423Z,17.10
2018-06-27T04:34:13.663Z,19.50
2018-06-27T04:35:13.908Z,18.20
2018-06-27T04:36:14.250Z,16.80
2018-06-27T04:37:14.393Z,17.20
2018-06-27T04:38:14.639Z,17.70
2018-06-27T04:39:14.873Z,17.50
2018-06-27T04:40:15.128Z,17.40
2018-06-27T04:41:15.370Z,18.90
2018-06-27T04:42:15.613Z,19.70
2018-06-27T04:43:16.014Z,21.00
2018-06-27T04:44:16.222Z,21.70
2018-06-27T04:45:16.463Z,23.30
2018-06-27T04:46:16.706Z,21.60
2018-06-27T04:47:16.947Z,21.20
2018-06-27T04:48:17.189Z,20.90
2018-06-27T04:49:17.465Z,20.30
2018-06-27T04:50:17.675Z,19.20
2018-06-27T04:51:17.917Z,20.90
2018-06-27T04:52:18.158Z,20.40
2018-06-27T04:53:18.401Z,20.80
2018-06-27T04:54:18.639Z,19.30
2018-06-27T04:55:18.887Z,18.70
2018-06-27T04:56:19.132Z,18.50
2018-06-27T04:57:19.373Z,18.30
2018-06-27T04:58:19.618Z,18.30
2018-06-27T04:59:19.858Z,17.50
2018-06-27T05:00:20.101Z,17.80
2018-06-27T05:01:20.343Z,15.50
2018-06-27T05:02:20.585Z,16.10
2018-06-27T05:03:20.828Z,16.40
2018-06-27T05:04:21.072Z,16.20
2018-06-27T05:05:21.314Z,15.40
2018-06-27T05:06:21.558Z,15.10
2018-06-27T05:07:21.844Z,14.70
2018-06-27T05:08:22.046Z,13.80
2018-06-27T05:09:22.288Z,14.10
2018-06-27T05:10:22.530Z,15.20
2018-06-27T05:11:22.773Z,15.40
2018-06-27T05:12:23.016Z,17.40
2018-06-27T05:13:23.296Z,18.90
2018-06-27T05:14:23.493Z,17.80
2018-06-27T05:15:23.731Z,17.40
2018-06-27T05:16:23.975Z,18.30
2018-06-27T05:17:24.220Z,19.30
2018-06-27T05:18:24.532Z,17.90
2018-06-27T05:19:24.706Z,17.50
2018-06-27T05:20:24.947Z,16.60
2018-06-27T05:21:25.192Z,17.20
2018-06-27T05:22:25.432Z,16.50
2018-06-27T05:23:25.674Z,14.40
2018-06-27T05:24:25.920Z,13.70
2018-06-27T05:25:26.159Z,14.40
2018-06-27T05:26:26.404Z,16.00
2018-06-27T05:27:26.699Z,15.00
2018-06-27T05:28:26.888Z,15.20
2018-06-27T05:29:27.131Z,14.50
2018-06-27T05:30:27.374Z,15.10
2018-06-27T05:31:27.619Z,15.30
2018-06-27T05:32:27.903Z,15.60
2018-06-27T05:33:28.109Z,14.40
2018-06-27T05:34:28.346Z,13.70
2018-06-27T05:35:28.589Z,14.80
2018-06-27T05:36:28.833Z,14.60
2018-06-27T05:37:29.110Z,14.50
2018-06-27T05:38:29.318Z,15.20
2018-06-27T05:39:29.564Z,14.80
2018-06-27T05:40:29.805Z,15.10
2018-06-27T05:41:30.049Z,15.30
2018-06-27T05:42:30.290Z,16.60
2018-06-27T05:43:30.535Z,15.10
2018-06-27T05:44:30.776Z,15.80
2018-06-27T05:45:31.023Z,15.00
2018-06-27T05:46:31.260Z,16.20
2018-06-27T05:47:31.502Z,15.20
2018-06-27T05:48:31.746Z,15.60
2018-06-27T05:49:31.990Z,15.40
2018-06-27T05:50:32.833Z,15.00
2018-06-27T05:51:32.570Z,14.80
2018-06-27T05:52:32.794Z,14.80
2018-06-27T05:53:33.039Z,14.50
2018-06-27T05:54:33.283Z,14.80
2018-06-27T05:55:33.525Z,14.30
2018-06-27T05:56:33.769Z,14.80
2018-06-27T05:57:34.015Z,14.60
2018-06-27T05:58:34.312Z,14.10
2018-06-27T05:59:34.562Z,14.10
2018-06-27T06:00:34.813Z,14.50
2018-06-27T06:01:36.207Z,13.90
2018-06-27T06:02:35.868Z,13.80
2018-06-27T06:03:35.725Z,13.70
2018-06-27T06:04:36.094Z,13.60
2018-06-27T06:05:36.134Z,13.70
2018-06-27T06:06:36.367Z,13.90
2018-06-27T06:07:36.611Z,14.30
2018-06-27T06:08:36.857Z,13.80
2018-06-27T06:09:37.100Z,13.30
2018-06-27T06:10:37.346Z,12.70
2018-06-27T06:11:37.675Z,12.90
2018-06-27T06:12:37.833Z,12.90
2018-06-27T06:13:38.075Z,13.00
2018-06-27T06:14:38.318Z,12.20
2018-06-27T06:15:38.561Z,12.00
2018-06-27T06:16:38.808Z,11.80
2018-06-27T06:17:39.052Z,10.60
2018-06-27T06:18:39.298Z,10.50
2018-06-27T06:19:39.594Z,11.00
2018-06-27T06:20:39.784Z,11.00
2018-06-27T06:21:40.031Z,11.10
2018-06-27T06:22:40.271Z,10.80
2018-06-27T06:23:40.514Z,12.30
2018-06-27T06:24:40.779Z,12.20
2018-06-27T06:25:41.098Z,13.30
2018-06-27T06:26:41.347Z,12.60
2018-06-27T06:27:41.591Z,11.20
2018-06-27T06:28:41.830Z,11.00
2018-06-27T06:29:42.073Z,11.40
2018-06-27T06:30:42.317Z,9.10
2018-06-27T06:31:42.561Z,7.40
2018-06-27T06:32:42.810Z,6.70
2018-06-27T06:33:43.047Z,7.30
2018-06-27T06:34:43.294Z,4.70
2018-06-27T06:35:43.536Z,3.00
2018-06-27T06:36:43.780Z,3.60
2018-06-27T06:37:44.025Z,2.90
2018-06-27T06:38:44.273Z,3.30
2018-06-27T06:39:44.515Z,3.80
2018-06-27T06:40:44.821Z,3.20
2018-06-27T06:41:45.006Z,3.10
2018-06-27T06:42:45.249Z,2.90
2018-06-27T06:43:45.495Z,2.50
2018-06-27T06:44:45.739Z,2.30
2018-06-27T06:45:45.987Z,2.40
2018-06-27T06:46:46.235Z,3.00
2018-06-27T06:47:46.475Z,2.60
2018-06-27T06:48:46.721Z,2.80
2018-06-27T06:49:46.967Z,3.00
2018-06-27T06:50:47.212Z,3.50
2018-06-27T06:51:47.457Z,3.00
2018-06-27T06:52:47.702Z,3.30
2018-06-27T06:53:47.947Z,2.70
2018-06-27T06:54:48.190Z,2.20
2018-06-27T06:55:48.434Z,2.10
2018-06-27T06:56:48.678Z,2.50
2018-06-27T06:57:48.924Z,2.70
2018-06-27T06:58:49.190Z,2.90
2018-06-27T06:59:49.412Z,2.70
2018-06-27T07:00:49.659Z,2.90
2018-06-27T07:01:49.908Z,2.40
2018-06-27T07:02:50.155Z,2.50
2018-06-27T07:03:50.394Z,2.10
2018-06-27T07:04:50.645Z,2.90
2018-06-27T07:05:50.883Z,3.00
2018-06-27T07:06:51.132Z,3.10
2018-06-27T07:07:51.379Z,3.10
2018-06-27T07:08:51.624Z,3.10
2018-06-27T07:09:51.870Z,3.20
2018-06-27T07:10:52.117Z,3.40
2018-06-27T07:11:52.361Z,2.90
2018-06-27T07:12:52.607Z,3.30
2018-06-27T07:13:52.859Z,3.00
2018-06-27T07:14:53.097Z,3.30
2018-06-27T07:15:53.342Z,3.60
2018-06-27T07:16:53.589Z,4.60
2018-06-27T07:17:53.920Z,4.40
2018-06-27T07:18:54.079Z,4.50
2018-06-27T07:19:54.325Z,3.90
2018-06-27T07:20:54.570Z,4.00
2018-06-27T07:21:54.818Z,4.30
2018-06-27T07:22:55.065Z,3.90
2018-06-27T07:23:55.311Z,3.60
2018-06-27T07:24:55.557Z,3.80
2018-06-27T07:25:55.880Z,3.80
2018-06-27T07:26:56.131Z,4.20
2018-06-27T07:27:56.377Z,3.60
2018-06-27T07:28:56.625Z,3.70
2018-06-27T07:29:56.876Z,4.70
2018-06-27T07:30:57.154Z,4.00
2018-06-27T07:31:57.407Z,4.60
2018-06-27T07:32:57.650Z,5.30
2018-06-27T07:33:58.179Z,5.00
2018-06-27T07:34:58.198Z,5.20
2018-06-27T07:35:58.489Z,4.20
2018-06-27T07:36:58.694Z,4.90
2018-06-27T07:37:58.942Z,5.00
2018-06-27T07:38:59.190Z,5.10
2018-06-27T07:39:59.437Z,5.30
2018-06-27T07:40:59.687Z,5.10
2018-06-27T07:41:59.934Z,5.80
2018-06-27T07:43:00.188Z,4.50
2018-06-27T07:44:00.436Z,4.90
2018-06-27T07:45:00.683Z,5.60
2018-06-27T07:46:00.935Z,5.70
2018-06-27T07:47:01.182Z,5.40
2018-06-27T07:48:01.430Z,4.40
2018-06-27T07:49:01.678Z,4.80
2018-06-27T07:50:01.927Z,4.50
2018-06-27T07:51:02.177Z,5.60
2018-06-27T07:52:02.429Z,5.20
2018-06-27T07:53:02.685Z,4.70
2018-06-27T07:54:02.928Z,3.30
2018-06-27T07:55:03.232Z,3.60
2018-06-27T07:56:03.430Z,3.90
2018-06-27T07:57:03.681Z,4.20
2018-06-27T07:58:03.930Z,4.50
2018-06-27T07:59:04.181Z,4.40
2018-06-27T08:00:04.430Z,4.20
2018-06-27T08:01:04.682Z,4.50
2018-06-27T08:02:04.931Z,5.00
2018-06-27T08:03:05.182Z,5.20
2018-06-27T08:04:05.432Z,5.40
2018-06-27T08:05:05.683Z,4.90
2018-06-27T08:06:05.935Z,3.80
2018-06-27T08:07:06.185Z,3.60
2018-06-27T08:08:06.500Z,3.20
2018-06-27T08:09:06.750Z,3.20
2018-06-27T08:10:07.031Z,3.10
2018-06-27T08:11:07.299Z,3.50
2018-06-27T08:12:07.543Z,3.40
2018-06-27T08:13:07.799Z,3.80
2018-06-27T08:14:08.052Z,4.20
2018-06-27T08:15:08.304Z,4.10
2018-06-27T08:16:08.556Z,3.40
2018-06-27T08:17:08.816Z,3.40
2018-06-27T08:18:09.068Z,3.00
2018-06-27T08:19:09.323Z,3.50
2018-06-27T08:20:09.580Z,2.70
2018-06-27T08:21:09.839Z,3.30
2018-06-27T08:22:10.090Z,3.10
2018-06-27T08:23:10.348Z,3.50
2018-06-27T08:24:10.601Z,3.70
2018-06-27T08:25:10.856Z,3.70
2018-06-27T08:26:11.192Z,3.40
2018-06-27T08:27:11.368Z,3.20
2018-06-27T08:28:11.624Z,3.10
2018-06-27T08:29:11.880Z,3.40
2018-06-27T08:30:12.174Z,3.50
2018-06-27T08:31:12.433Z,3.80
2018-06-27T08:32:12.707Z,3.80
2018-06-27T08:33:12.979Z,3.20
2018-06-27T08:34:13.236Z,3.30
2018-06-27T08:35:13.494Z,4.10
2018-06-27T08:36:13.749Z,3.70
2018-06-27T08:37:14.006Z,3.40
2018-06-27T08:38:14.402Z,2.70
2018-06-27T08:39:14.657Z,3.00
2018-06-27T08:40:14.969Z,2.50
2018-06-27T08:41:15.258Z,2.70
2018-06-27T08:42:15.517Z,2.30
2018-06-27T08:43:15.776Z,2.40
2018-06-27T08:44:16.081Z,2.10
2018-06-27T08:45:16.286Z,2.50
2018-06-27T08:46:16.541Z,2.20
2018-06-27T08:47:16.800Z,2.50
2018-06-27T08:48:17.059Z,2.80
2018-06-27T08:49:17.315Z,3.00
2018-06-27T08:50:17.574Z,2.50
2018-06-27T08:51:17.826Z,2.80
2018-06-27T08:52:18.077Z,3.10
2018-06-27T08:53:18.335Z,3.20
2018-06-27T08:54:18.587Z,3.30
2018-06-27T08:55:18.839Z,2.70
2018-06-27T08:56:19.092Z,2.70
2018-06-27T08:57:19.348Z,2.70
2018-06-27T08:58:19.603Z,2.80
2018-06-27T08:59:19.855Z,2.80
2018-06-27T09:00:20.109Z,3.40
2018-06-27T09:01:20.363Z,2.80
2018-06-27T09:02:20.625Z,2.80
2018-06-27T09:03:20.876Z,2.90
2018-06-27T09:04:21.134Z,3.00
2018-06-27T09:05:21.391Z,3.00
2018-06-27T09:06:21.648Z,3.30
2018-06-27T09:07:21.906Z,3.00
2018-06-27T09:08:22.163Z,2.70
2018-06-27T09:09:22.419Z,3.10
2018-06-27T09:10:22.675Z,3.20
2018-06-27T09:11:22.933Z,3.20
2018-06-27T09:12:23.186Z,3.20
2018-06-27T09:13:23.443Z,3.40
2018-06-27T09:14:23.697Z,3.10
2018-06-27T09:15:23.956Z,3.20
2018-06-27T09:16:24.209Z,3.20
2018-06-27T09:17:24.464Z,2.90
2018-06-27T09:18:24.718Z,2.90
2018-06-27T09:19:24.973Z,3.50
2018-06-27T09:20:25.229Z,3.30
2018-06-27T09:21:25.484Z,2.90
2018-06-27T09:22:25.739Z,3.30
2018-06-27T09:23:26.000Z,4.10
2018-06-27T09:24:26.250Z,3.00
2018-06-27T09:25:26.506Z,3.70
2018-06-27T09:26:26.765Z,3.40
2018-06-27T09:27:27.017Z,3.00
2018-06-27T09:28:27.274Z,2.40
2018-06-27T09:29:27.531Z,2.20
2018-06-27T09:30:27.789Z,1.90
2018-06-27T09:31:28.046Z,2.10
2018-06-27T09:32:28.305Z,2.40
2018-06-27T09:33:28.557Z,2.20
2018-06-27T09:34:28.805Z,1.90
2018-06-27T09:35:29.063Z,1.90
2018-06-27T09:36:29.311Z,2.30
2018-06-27T09:37:29.562Z,1.90
2018-06-27T09:38:29.813Z,1.80
2018-06-27T09:39:30.067Z,1.70
2018-06-27T09:40:30.317Z,1.50
2018-06-27T09:41:30.571Z,2.00
2018-06-27T09:42:30.822Z,1.80
2018-06-27T09:43:31.074Z,2.10
2018-06-27T09:44:31.332Z,1.70
2018-06-27T09:45:31.581Z,1.40
2018-06-27T09:46:31.833Z,1.80
2018-06-27T09:47:32.086Z,2.10
2018-06-27T09:48:32.350Z,1.60
2018-06-27T09:49:32.593Z,1.60
2018-06-27T09:50:32.848Z,1.60
2018-06-27T09:51:33.102Z,1.80
2018-06-27T09:52:33.360Z,1.80
2018-06-27T09:53:33.610Z,1.30
2018-06-27T09:54:33.863Z,1.70
2018-06-27T09:55:34.116Z,1.60
2018-06-27T09:56:34.370Z,1.40
2018-06-27T09:57:34.623Z,1.30
2018-06-27T09:58:34.878Z,1.40
2018-06-27T09:59:35.134Z,1.30
2018-06-27T10:00:35.387Z,1.50
2018-06-27T10:01:35.638Z,1.70
2018-06-27T10:02:35.890Z,1.40
2018-06-27T10:03:36.144Z,1.40
2018-06-27T10:04:36.397Z,1.70
2018-06-27T10:05:36.650Z,1.60
2018-06-27T10:06:36.904Z,1.50
2018-06-27T10:07:37.160Z,1.30
2018-06-27T10:08:37.409Z,1.10
2018-06-27T10:09:37.662Z,1.30
2018-06-27T10:10:37.914Z,1.20
2018-06-27T10:11:38.176Z,1.20
2018-06-27T10:12:38.424Z,1.20
2018-06-27T10:13:38.679Z,1.00
2018-06-27T10:14:38.931Z,1.10
2018-06-27T10:15:39.186Z,1.00
2018-06-27T10:16:39.441Z,0.80
2018-06-27T10:17:39.693Z,0.70
2018-06-27T10:18:39.947Z,0.70
2018-06-27T10:19:40.201Z,0.80
2018-06-27T10:20:40.453Z,0.80
2018-06-27T10:21:40.708Z,0.80
2018-06-27T10:22:41.042Z,0.90
2018-06-27T10:23:41.216Z,0.80
2018-06-27T10:24:41.471Z,0.70
2018-06-27T10:25:41.726Z,0.80
2018-06-27T10:26:41.978Z,1.00
2018-06-27T10:27:42.236Z,0.80
2018-06-27T10:28:42.489Z,0.70
2018-06-27T10:29:42.743Z,1.00
2018-06-27T10:30:42.997Z,0.90
2018-06-27T10:31:43.251Z,0.80
2018-06-27T10:32:43.505Z,0.70
2018-06-27T10:33:43.760Z,0.80
2018-06-27T10:34:44.016Z,0.70
2018-06-27T10:35:44.342Z,0.70
2018-06-27T10:36:44.518Z,0.90
2018-06-27T10:37:44.772Z,0.70
2018-06-27T10:38:45.029Z,0.80
2018-06-27T10:39:45.283Z,0.70
2018-06-27T10:40:45.541Z,0.70
2018-06-27T10:41:45.798Z,0.80
2018-06-27T10:42:46.053Z,0.80
2018-06-27T10:43:46.305Z,0.80
2018-06-27T10:44:46.559Z,0.90
2018-06-27T10:45:46.812Z,0.80
2018-06-27T10:46:47.065Z,0.70
2018-06-27T10:47:47.320Z,0.90
2018-06-27T10:48:47.575Z,0.80
2018-06-27T10:49:47.830Z,0.80
2018-06-27T10:50:48.083Z,0.60
2018-06-27T10:51:48.337Z,0.80
2018-06-27T10:52:48.590Z,0.70
2018-06-27T10:53:48.846Z,0.70
2018-06-27T10:54:49.102Z,0.80
2018-06-27T10:55:49.355Z,0.80
2018-06-27T10:56:49.608Z,0.70
2018-06-27T10:57:49.862Z,0.80
2018-06-27T10:58:50.122Z,0.60
2018-06-27T10:59:50.371Z,0.70
2018-06-27T11:00:50.629Z,0.70
2018-06-27T11:01:50.880Z,0.80
2018-06-27T11:02:51.134Z,0.70
2018-06-27T11:03:51.390Z,0.80
2018-06-27T11:04:51.644Z,0.60
2018-06-27T11:05:51.902Z,0.60
2018-06-27T11:06:52.156Z,0.80
2018-06-27T11:07:52.412Z,0.80
2018-06-27T11:08:52.666Z,0.90
2018-06-27T11:09:52.926Z,0.70
2018-06-27T11:10:53.177Z,0.80
2018-06-27T11:11:53.432Z,1.00
2018-06-27T11:12:53.686Z,0.70
2018-06-27T11:13:53.944Z,0.70
2018-06-27T11:14:54.195Z,0.70
2018-06-27T11:15:54.450Z,0.80
2018-06-27T11:16:54.707Z,0.80
2018-06-27T11:17:54.961Z,0.70
2018-06-27T11:18:55.216Z,0.90
2018-06-27T11:19:55.470Z,0.70
2018-06-27T11:20:55.727Z,0.60
2018-06-27T11:21:55.975Z,0.70
2018-06-27T11:22:56.229Z,0.70
2018-06-27T11:23:56.482Z,0.60
2018-06-27T11:24:56.735Z,0.70
2018-06-27T11:25:56.989Z,0.60
2018-06-27T11:26:57.296Z,0.60
2018-06-27T11:27:57.497Z,0.70
2018-06-27T11:28:57.750Z,0.60
2018-06-27T11:29:58.005Z,0.70
2018-06-27T11:30:58.259Z,0.60
2018-06-27T11:31:58.513Z,0.80
2018-06-27T11:32:58.768Z,0.70
2018-06-27T11:33:59.020Z,0.70
2018-06-27T11:34:59.273Z,0.60
2018-06-27T11:35:59.528Z,0.60
2018-06-27T11:36:59.782Z,0.70
2018-06-27T11:38:00.036Z,0.90
2018-06-27T11:39:00.290Z,0.70
2018-06-27T11:40:00.543Z,0.80
2018-06-27T11:41:00.795Z,0.70
2018-06-27T11:42:01.052Z,0.60
2018-06-27T11:43:01.308Z,0.70
2018-06-27T11:44:01.565Z,0.70
2018-06-27T11:45:01.816Z,0.70
2018-06-27T11:46:02.074Z,0.70
2018-06-27T11:47:02.328Z,0.70
2018-06-27T11:48:02.614Z,0.80
2018-06-27T11:49:02.860Z,0.80
2018-06-27T11:50:03.115Z,0.70
2018-06-27T11:51:03.368Z,0.70
2018-06-27T11:52:03.621Z,0.80
2018-06-27T11:53:03.870Z,0.90
2018-06-27T11:54:04.123Z,0.80
2018-06-27T11:55:04.376Z,0.70
2018-06-27T11:56:04.635Z,0.80
2018-06-27T11:57:04.884Z,0.70
2018-06-27T11:58:05.138Z,0.80
2018-06-27T11:59:05.394Z,0.70
2018-06-27T12:00:05.637Z,0.80
2018-06-27T12:01:05.891Z,0.80
2018-06-27T12:02:06.147Z,0.70
2018-06-27T12:03:06.403Z,0.70
2018-06-27T12:04:06.660Z,0.90
2018-06-27T12:05:06.913Z,0.80
2018-06-27T12:06:07.167Z,1.00
2018-06-27T12:07:07.424Z,0.70
2018-06-27T12:08:07.679Z,0.70
2018-06-27T12:09:07.935Z,0.70
2018-06-27T12:10:08.189Z,0.80
2018-06-27T12:11:08.444Z,0.80
2018-06-27T12:12:08.700Z,0.70
2018-06-27T12:13:08.951Z,0.90
2018-06-27T12:14:09.204Z,0.70
2018-06-27T12:15:09.457Z,0.80
2018-06-27T12:16:09.711Z,0.80
2018-06-27T12:17:09.965Z,1.00
2018-06-27T12:18:10.219Z,0.70
2018-06-27T12:19:10.475Z,0.80
2018-06-27T12:20:10.729Z,0.80
2018-06-27T12:21:10.984Z,0.90
2018-06-27T12:22:11.238Z,0.80
2018-06-27T12:23:11.494Z,0.70
2018-06-27T12:24:11.764Z,0.90
2018-06-27T12:25:12.028Z,0.70
2018-06-27T12:26:12.305Z,0.90
2018-06-27T12:27:12.528Z,0.80
2018-06-27T12:28:12.786Z,0.90
2018-06-27T12:29:13.040Z,0.90
2018-06-27T12:30:13.295Z,0.80
2018-06-27T12:31:13.552Z,0.70
2018-06-27T12:32:13.806Z,0.80
2018-06-27T12:33:14.059Z,0.90
2018-06-27T12:34:14.314Z,0.80
2018-06-27T12:35:14.569Z,0.80
2018-06-27T12:36:14.817Z,0.80
2018-06-27T12:37:15.065Z,0.90
2018-06-27T12:38:15.319Z,0.80
2018-06-27T12:39:15.576Z,0.90
2018-06-27T12:40:15.827Z,0.90
2018-06-27T12:41:16.080Z,0.90
2018-06-27T12:42:16.335Z,0.80
2018-06-27T12:43:16.592Z,0.90
2018-06-27T12:44:16.885Z,0.90
2018-06-27T12:45:17.095Z,0.80
2018-06-27T12:46:17.350Z,1.00
2018-06-27T12:47:17.603Z,0.90
2018-06-27T12:48:17.855Z,0.90
2018-06-27T12:49:18.112Z,0.80
2018-06-27T12:50:18.429Z,0.80
2018-06-27T12:51:18.615Z,0.70
2018-06-27T12:52:18.871Z,0.80
2018-06-27T12:53:19.124Z,0.80
2018-06-27T12:54:19.380Z,0.80
2018-06-27T12:55:19.632Z,0.80
2018-06-27T12:56:19.887Z,0.80
2018-06-27T12:57:20.140Z,0.70
2018-06-27T12:58:20.397Z,0.70
2018-06-27T12:59:20.648Z,0.70
2018-06-27T13:00:20.911Z,0.80
2018-06-27T13:01:21.159Z,0.80
2018-06-27T13:02:21.414Z,0.80
2018-06-27T13:03:21.729Z,0.80
2018-06-27T13:04:21.920Z,0.70
2018-06-27T13:05:22.179Z,0.70
2018-06-27T13:06:22.435Z,0.70
2018-06-27T13:07:22.690Z,0.60
2018-06-27T13:08:22.945Z,0.80
2018-06-27T13:09:23.228Z,0.70
2018-06-27T13:10:23.448Z,0.60